ロメ の空港の天気 - METARとTAF

ロメ空港 ( DXXX / LFW ) - トーゴ ロメ
飛行場実況気象(Metar)
観測時間01/23 05:00 GMT (01/23 05:00 UTC)
風向・風速西 4m/s
視程4500m
天気現象もや
全天の8割程度の雲 雲底高度 300m
気温25℃
湿度94%
気圧1010hPa
METARDXXX 230500Z 26007KT 4500 BR BKN010 25/24 Q1010 NOSIG
過去の天気等 Google飛行場航空写真 Wunderground天気予報

過去48時間のMETAR

飛行場予報(TAF)
発表時間: 1/23 05:20 GMT (1/23 05:20 UTC)
予報対象時間: 23日6時 GMT ~ 24日12時 GMT
風向・風速西 2m/s
視程4,000m
天気現象もや
全天の8割程度の雲 雲底高度 300m
23日6時 GMT ~ 23日8時 GMT に一時的に
視程800m
天気現象
23日9時 GMT ~ 23日11時 GMT に徐々に
風向・風速南南西 5m/s
視程10km以上
天気現象運行に影響にある天気現象が終了
全天の4割程度の雲 雲底高度 370m
23日12時 GMT ~ 23日14時 GMT に徐々に
全天の8割程度の雲 雲底高度 430m
少しの積乱雲 雲底高度 610m
23日23時 GMT ~ 24日1時 GMT に徐々に
風向・風速西 3m/s
全天の4割程度の雲 雲底高度 430m
TAF COR DXXX 230520Z 2306/2412 27004KT 4000 BR BKN010
TEMPO 2306/2308 0800 FG
BECMG 2309/2311 20010KT 9999 NSW SCT012
BECMG 2312/2314 BKN014 FEW020CB
BECMG 2323/2401 26005KT SCT014